sensor_id;sensor_type;location;lat;lon;timestamp;pressure;altitude;pressure_sealevel;temperature
15709;BMP180;7954;51.914;8.420;2022-11-20T00:01:28;100083.19;;;4.32
15709;BMP180;7954;51.914;8.420;2022-11-20T00:03:58;100082.91;;;4.30
15709;BMP180;7954;51.914;8.420;2022-11-20T00:06:27;100084.47;;;4.30
15709;BMP180;7954;51.914;8.420;2022-11-20T00:08:57;100074.03;;;4.23
15709;BMP180;7954;51.914;8.420;2022-11-20T00:11:28;100073.72;;;4.21
15709;BMP180;7954;51.914;8.420;2022-11-20T00:13:58;100067.28;;;4.18
15709;BMP180;7954;51.914;8.420;2022-11-20T00:16:30;100066.69;;;4.15
15709;BMP180;7954;51.914;8.420;2022-11-20T00:19:00;100073.53;;;4.16
15709;BMP180;7954;51.914;8.420;2022-11-20T00:21:30;100069.81;;;4.14
15709;BMP180;7954;51.914;8.420;2022-11-20T00:23:58;100069.19;;;4.15
15709;BMP180;7954;51.914;8.420;2022-11-20T00:26:27;100060.22;;;4.11
15709;BMP180;7954;51.914;8.420;2022-11-20T00:28:57;100056.53;;;4.09
15709;BMP180;7954;51.914;8.420;2022-11-20T00:31:26;100055.53;;;4.13
15709;BMP180;7954;51.914;8.420;2022-11-20T00:33:54;100054.66;;;4.08
15709;BMP180;7954;51.914;8.420;2022-11-20T00:36:26;100059.66;;;4.08
15709;BMP180;7954;51.914;8.420;2022-11-20T00:38:56;100056.41;;;4.00
15709;BMP180;7954;51.914;8.420;2022-11-20T00:41:25;100067.03;;;3.99
15709;BMP180;7954;51.914;8.420;2022-11-20T00:43:54;100065.22;;;3.98
15709;BMP180;7954;51.914;8.420;2022-11-20T00:46:24;100061.50;;;3.96
15709;BMP180;7954;51.914;8.420;2022-11-20T00:48:52;100060.00;;;3.92
15709;BMP180;7954;51.914;8.420;2022-11-20T00:51:22;100061.88;;;3.93
15709;BMP180;7954;51.914;8.420;2022-11-20T00:53:52;100072.22;;;3.91
15709;BMP180;7954;51.914;8.420;2022-11-20T00:56:22;100064.47;;;3.89
15709;BMP180;7954;51.914;8.420;2022-11-20T00:58:50;100066.75;;;3.84
15709;BMP180;7954;51.914;8.420;2022-11-20T01:01:19;100069.25;;;3.84
15709;BMP180;7954;51.914;8.420;2022-11-20T01:03:49;100063.69;;;3.81
15709;BMP180;7954;51.914;8.420;2022-11-20T01:06:19;100062.44;;;3.83
15709;BMP180;7954;51.914;8.420;2022-11-20T01:08:49;100060.56;;;3.82
15709;BMP180;7954;51.914;8.420;2022-11-20T01:11:20;100059.34;;;3.80
15709;BMP180;7954;51.914;8.420;2022-11-20T01:13:50;100065.66;;;3.78
15709;BMP180;7954;51.914;8.420;2022-11-20T01:16:20;100067.19;;;3.78
15709;BMP180;7954;51.914;8.420;2022-11-20T01:18:49;100074.31;;;3.80
15709;BMP180;7954;51.914;8.420;2022-11-20T01:21:20;100074.06;;;3.79
15709;BMP180;7954;51.914;8.420;2022-11-20T01:23:49;100071.91;;;3.76
15709;BMP180;7954;51.914;8.420;2022-11-20T01:26:21;100066.94;;;3.76
15709;BMP180;7954;51.914;8.420;2022-11-20T01:28:50;100066.66;;;3.75
15709;BMP180;7954;51.914;8.420;2022-11-20T01:31:20;100068.50;;;3.76
15709;BMP180;7954;51.914;8.420;2022-11-20T01:33:50;100068.28;;;3.70
15709;BMP180;7954;51.914;8.420;2022-11-20T01:36:20;100075.88;;;3.66
15709;BMP180;7954;51.914;8.420;2022-11-20T01:38:51;100075.81;;;3.53
15709;BMP180;7954;51.914;8.420;2022-11-20T01:41:23;100070.28;;;3.50
15709;BMP180;7954;51.914;8.420;2022-11-20T01:44:13;100076.91;;;3.45
15709;BMP180;7954;51.914;8.420;2022-11-20T01:46:51;100073.88;;;3.42
15709;BMP180;7954;51.914;8.420;2022-11-20T01:49:23;100061.94;;;3.45
15709;BMP180;7954;51.914;8.420;2022-11-20T01:51:55;100058.09;;;3.51
15709;BMP180;7954;51.914;8.420;2022-11-20T01:54:28;100048.66;;;3.54
15709;BMP180;7954;51.914;8.420;2022-11-20T01:57:00;100053.59;;;3.58
15709;BMP180;7954;51.914;8.420;2022-11-20T01:59:29;100058.28;;;3.57
15709;BMP180;7954;51.914;8.420;2022-11-20T02:01:58;100052.38;;;3.56
15709;BMP180;7954;51.914;8.420;2022-11-20T02:04:26;100058.44;;;3.49
15709;BMP180;7954;51.914;8.420;2022-11-20T02:06:59;100051.50;;;3.38
15709;BMP180;7954;51.914;8.420;2022-11-20T02:09:28;100050.19;;;3.40
15709;BMP180;7954;51.914;8.420;2022-11-20T02:11:56;100057.03;;;3.41
15709;BMP180;7954;51.914;8.420;2022-11-20T02:14:28;100054.53;;;3.41
15709;BMP180;7954;51.914;8.420;2022-11-20T02:16:55;100049.19;;;3.44
15709;BMP180;7954;51.914;8.420;2022-11-20T02:19:26;100052.59;;;3.44
15709;BMP180;7954;51.914;8.420;2022-11-20T02:22:00;100049.47;;;3.45
15709;BMP180;7954;51.914;8.420;2022-11-20T02:24:32;100041.97;;;3.45
15709;BMP180;7954;51.914;8.420;2022-11-20T02:27:03;100040.81;;;3.43
15709;BMP180;7954;51.914;8.420;2022-11-20T02:29:34;100037.63;;;3.44
15709;BMP180;7954;51.914;8.420;2022-11-20T02:32:03;100029.88;;;3.43
15709;BMP180;7954;51.914;8.420;2022-11-20T02:34:32;100030.25;;;3.40
15709;BMP180;7954;51.914;8.420;2022-11-20T02:36:59;100024.06;;;3.38
15709;BMP180;7954;51.914;8.420;2022-11-20T02:39:29;100030.97;;;3.35
15709;BMP180;7954;51.914;8.420;2022-11-20T02:42:00;100025.97;;;3.35
15709;BMP180;7954;51.914;8.420;2022-11-20T02:44:29;100021.25;;;3.37
15709;BMP180;7954;51.914;8.420;2022-11-20T02:46:57;100016.63;;;3.34
15709;BMP180;7954;51.914;8.420;2022-11-20T02:49:25;100008.59;;;3.31
15709;BMP180;7954;51.914;8.420;2022-11-20T02:51:53;100004.91;;;3.29
15709;BMP180;7954;51.914;8.420;2022-11-20T02:54:21;100005.25;;;3.27
15709;BMP180;7954;51.914;8.420;2022-11-20T02:56:49;100004.44;;;3.22
15709;BMP180;7954;51.914;8.420;2022-11-20T02:59:20;100007.28;;;3.20
15709;BMP180;7954;51.914;8.420;2022-11-20T03:01:49;99997.69;;;3.17
15709;BMP180;7954;51.914;8.420;2022-11-20T03:04:17;99997.75;;;3.14
15709;BMP180;7954;51.914;8.420;2022-11-20T03:06:45;99995.91;;;3.13
15709;BMP180;7954;51.914;8.420;2022-11-20T03:09:13;100004.03;;;3.12
15709;BMP180;7954;51.914;8.420;2022-11-20T03:11:41;100003.75;;;3.10
15709;BMP180;7954;51.914;8.420;2022-11-20T03:14:09;100007.22;;;3.07
15709;BMP180;7954;51.914;8.420;2022-11-20T03:16:38;100010.09;;;3.04
15709;BMP180;7954;51.914;8.420;2022-11-20T03:19:07;100013.84;;;3.02
15709;BMP180;7954;51.914;8.420;2022-11-20T03:21:35;99999.91;;;2.99
15709;BMP180;7954;51.914;8.420;2022-11-20T03:24:04;99998.41;;;2.95
15709;BMP180;7954;51.914;8.420;2022-11-20T03:26:32;100010.25;;;2.96
15709;BMP180;7954;51.914;8.420;2022-11-20T03:29:02;99994.44;;;2.92
15709;BMP180;7954;51.914;8.420;2022-11-20T03:31:33;99993.88;;;2.89
15709;BMP180;7954;51.914;8.420;2022-11-20T03:34:03;99991.66;;;2.90
15709;BMP180;7954;51.914;8.420;2022-11-20T03:36:32;99997.56;;;2.91
15709;BMP180;7954;51.914;8.420;2022-11-20T03:39:01;99994.78;;;2.89
15709;BMP180;7954;51.914;8.420;2022-11-20T03:41:30;99992.38;;;2.85
15709;BMP180;7954;51.914;8.420;2022-11-20T03:44:01;99993.56;;;2.87
15709;BMP180;7954;51.914;8.420;2022-11-20T03:46:30;99998.91;;;2.85
15709;BMP180;7954;51.914;8.420;2022-11-20T03:48:58;100014.56;;;2.80
15709;BMP180;7954;51.914;8.420;2022-11-20T03:51:29;100011.53;;;2.77
15709;BMP180;7954;51.914;8.420;2022-11-20T03:53:59;100012.78;;;2.75
15709;BMP180;7954;51.914;8.420;2022-11-20T03:56:29;100006.63;;;2.73
15709;BMP180;7954;51.914;8.420;2022-11-20T03:58:58;99997.56;;;2.73
15709;BMP180;7954;51.914;8.420;2022-11-20T04:01:29;99989.25;;;2.69
15709;BMP180;7954;51.914;8.420;2022-11-20T04:03:58;99994.25;;;2.69
15709;BMP180;7954;51.914;8.420;2022-11-20T04:06:29;99998.91;;;2.67
15709;BMP180;7954;51.914;8.420;2022-11-20T04:08:58;99995.88;;;2.64
15709;BMP180;7954;51.914;8.420;2022-11-20T04:11:27;99994.28;;;2.65
15709;BMP180;7954;51.914;8.420;2022-11-20T04:13:58;99994.97;;;2.64
15709;BMP180;7954;51.914;8.420;2022-11-20T04:16:28;99998.09;;;2.63
15709;BMP180;7954;51.914;8.420;2022-11-20T04:18:58;100005.91;;;2.60
15709;BMP180;7954;51.914;8.420;2022-11-20T04:21:28;100006.25;;;2.58
15709;BMP180;7954;51.914;8.420;2022-11-20T04:23:56;100006.91;;;2.57
15709;BMP180;7954;51.914;8.420;2022-11-20T04:26:26;100006.91;;;2.57
15709;BMP180;7954;51.914;8.420;2022-11-20T04:28:55;100000.06;;;2.56
15709;BMP180;7954;51.914;8.420;2022-11-20T04:31:25;100008.25;;;2.51
15709;BMP180;7954;51.914;8.420;2022-11-20T04:33:54;99999.88;;;2.51
15709;BMP180;7954;51.914;8.420;2022-11-20T04:36:24;100005.47;;;2.50
15709;BMP180;7954;51.914;8.420;2022-11-20T04:38:55;100000.22;;;2.48
15709;BMP180;7954;51.914;8.420;2022-11-20T04:41:25;100004.59;;;2.45
15709;BMP180;7954;51.914;8.420;2022-11-20T04:43:54;99999.34;;;2.44
15709;BMP180;7954;51.914;8.420;2022-11-20T04:46:27;99995.34;;;2.40
15709;BMP180;7954;51.914;8.420;2022-11-20T04:48:56;99993.13;;;2.42
15709;BMP180;7954;51.914;8.420;2022-11-20T04:51:23;99996.28;;;2.41
15709;BMP180;7954;51.914;8.420;2022-11-20T04:53:51;99995.63;;;2.42
15709;BMP180;7954;51.914;8.420;2022-11-20T04:56:21;99991.94;;;2.40
15709;BMP180;7954;51.914;8.420;2022-11-20T04:58:49;99992.84;;;2.40
15709;BMP180;7954;51.914;8.420;2022-11-20T05:01:19;99982.63;;;2.39
15709;BMP180;7954;51.914;8.420;2022-11-20T05:03:47;99984.75;;;2.41
15709;BMP180;7954;51.914;8.420;2022-11-20T05:06:17;99986.34;;;2.41
15709;BMP180;7954;51.914;8.420;2022-11-20T05:08:46;100000.03;;;2.39
15709;BMP180;7954;51.914;8.420;2022-11-20T05:11:15;99997.91;;;2.36
15709;BMP180;7954;51.914;8.420;2022-11-20T05:13:46;100008.50;;;2.35
15709;BMP180;7954;51.914;8.420;2022-11-20T05:16:16;99998.25;;;2.34
15709;BMP180;7954;51.914;8.420;2022-11-20T05:18:45;100009.13;;;2.34
15709;BMP180;7954;51.914;8.420;2022-11-20T05:21:14;99990.16;;;2.35
15709;BMP180;7954;51.914;8.420;2022-11-20T05:23:44;99998.63;;;2.31
15709;BMP180;7954;51.914;8.420;2022-11-20T05:26:15;99991.16;;;2.31
15709;BMP180;7954;51.914;8.420;2022-11-20T05:28:46;99992.38;;;2.33
15709;BMP180;7954;51.914;8.420;2022-11-20T05:31:15;99998.34;;;2.30
15709;BMP180;7954;51.914;8.420;2022-11-20T05:33:52;99992.72;;;2.31
15709;BMP180;7954;51.914;8.420;2022-11-20T05:36:20;99989.91;;;2.29
15709;BMP180;7954;51.914;8.420;2022-11-20T05:38:48;99985.88;;;2.30
15709;BMP180;7954;51.914;8.420;2022-11-20T05:41:19;99980.91;;;2.30
15709;BMP180;7954;51.914;8.420;2022-11-20T05:43:49;99988.44;;;2.26
15709;BMP180;7954;51.914;8.420;2022-11-20T05:46:19;99987.84;;;2.23
15709;BMP180;7954;51.914;8.420;2022-11-20T05:48:55;99986.94;;;2.22
15709;BMP180;7954;51.914;8.420;2022-11-20T05:51:24;99987.56;;;2.21
15709;BMP180;7954;51.914;8.420;2022-11-20T05:53:53;99983.22;;;2.20
15709;BMP180;7954;51.914;8.420;2022-11-20T05:56:21;99991.94;;;2.22
15709;BMP180;7954;51.914;8.420;2022-11-20T05:58:50;99984.19;;;2.21
15709;BMP180;7954;51.914;8.420;2022-11-20T06:01:20;99986.00;;;2.22
15709;BMP180;7954;51.914;8.420;2022-11-20T06:03:49;99973.56;;;2.22
15709;BMP180;7954;51.914;8.420;2022-11-20T06:06:18;99985.09;;;2.21
15709;BMP180;7954;51.914;8.420;2022-11-20T06:08:46;99991.94;;;2.22
15709;BMP180;7954;51.914;8.420;2022-11-20T06:11:15;99986.94;;;2.22
15709;BMP180;7954;51.914;8.420;2022-11-20T06:13:43;99990.63;;;2.24
15709;BMP180;7954;51.914;8.420;2022-11-20T06:16:15;99977.53;;;2.25
15709;BMP180;7954;51.914;8.420;2022-11-20T06:18:44;99968.47;;;2.30
15709;BMP180;7954;51.914;8.420;2022-11-20T06:21:15;99981.75;;;2.34
15709;BMP180;7954;51.914;8.420;2022-11-20T06:23:43;99987.25;;;2.41
15709;BMP180;7954;51.914;8.420;2022-11-20T06:26:13;99982.13;;;2.49
15709;BMP180;7954;51.914;8.420;2022-11-20T06:28:42;99973.88;;;2.58
15709;BMP180;7954;51.914;8.420;2022-11-20T06:31:11;99983.13;;;2.63
15709;BMP180;7954;51.914;8.420;2022-11-20T06:33:41;99978.09;;;2.67
15709;BMP180;7954;51.914;8.420;2022-11-20T06:36:11;99973.59;;;2.74
15709;BMP180;7954;51.914;8.420;2022-11-20T06:38:40;99973.44;;;2.82
15709;BMP180;7954;51.914;8.420;2022-11-20T06:41:11;99984.19;;;2.90
15709;BMP180;7954;51.914;8.420;2022-11-20T06:43:39;99979.97;;;2.99
15709;BMP180;7954;51.914;8.420;2022-11-20T06:46:09;99985.72;;;3.07
15709;BMP180;7954;51.914;8.420;2022-11-20T06:48:37;99974.00;;;3.16
15709;BMP180;7954;51.914;8.420;2022-11-20T06:51:07;99966.41;;;3.23
15709;BMP180;7954;51.914;8.420;2022-11-20T06:53:36;99960.00;;;3.29
15709;BMP180;7954;51.914;8.420;2022-11-20T06:56:05;99968.06;;;3.32
15709;BMP180;7954;51.914;8.420;2022-11-20T06:58:34;99972.13;;;3.32
15709;BMP180;7954;51.914;8.420;2022-11-20T07:01:04;99968.63;;;3.35
15709;BMP180;7954;51.914;8.420;2022-11-20T07:03:34;99971.00;;;3.39
15709;BMP180;7954;51.914;8.420;2022-11-20T07:06:03;99971.69;;;3.38
15709;BMP180;7954;51.914;8.420;2022-11-20T07:08:33;99975.94;;;3.43
15709;BMP180;7954;51.914;8.420;2022-11-20T07:11:03;99989.50;;;3.49
15709;BMP180;7954;51.914;8.420;2022-11-20T07:13:32;99990.19;;;3.48
15709;BMP180;7954;51.914;8.420;2022-11-20T07:16:01;99987.03;;;3.49
15709;BMP180;7954;51.914;8.420;2022-11-20T07:18:29;99998.75;;;3.54
15709;BMP180;7954;51.914;8.420;2022-11-20T07:21:00;99987.50;;;3.56
15709;BMP180;7954;51.914;8.420;2022-11-20T07:23:28;99987.03;;;3.63
15709;BMP180;7954;51.914;8.420;2022-11-20T07:25:58;99997.25;;;3.68
15709;BMP180;7954;51.914;8.420;2022-11-20T07:28:30;100003.63;;;3.76
15709;BMP180;7954;51.914;8.420;2022-11-20T07:30:58;100003.81;;;3.81
15709;BMP180;7954;51.914;8.420;2022-11-20T07:33:28;99995.84;;;3.87
15709;BMP180;7954;51.914;8.420;2022-11-20T07:35:58;99994.75;;;3.95
15709;BMP180;7954;51.914;8.420;2022-11-20T07:38:26;99989.94;;;4.00
15709;BMP180;7954;51.914;8.420;2022-11-20T07:40:57;99996.72;;;4.05
15709;BMP180;7954;51.914;8.420;2022-11-20T07:43:28;99997.50;;;4.10
15709;BMP180;7954;51.914;8.420;2022-11-20T07:45:55;99997.03;;;4.16
15709;BMP180;7954;51.914;8.420;2022-11-20T07:48:23;99994.47;;;4.20
15709;BMP180;7954;51.914;8.420;2022-11-20T07:50:53;99996.75;;;4.28
15709;BMP180;7954;51.914;8.420;2022-11-20T07:53:22;99992.88;;;4.34
15709;BMP180;7954;51.914;8.420;2022-11-20T07:55:50;99982.41;;;4.41
15709;BMP180;7954;51.914;8.420;2022-11-20T07:58:22;99980.38;;;4.47
15709;BMP180;7954;51.914;8.420;2022-11-20T08:00:50;99986.81;;;4.51
15709;BMP180;7954;51.914;8.420;2022-11-20T08:03:19;99989.50;;;4.56
15709;BMP180;7954;51.914;8.420;2022-11-20T08:05:50;99979.13;;;4.59
15709;BMP180;7954;51.914;8.420;2022-11-20T08:08:19;99985.03;;;4.59
15709;BMP180;7954;51.914;8.420;2022-11-20T08:10:47;99983.75;;;4.61
15709;BMP180;7954;51.914;8.420;2022-11-20T08:13:14;99983.91;;;4.67
15709;BMP180;7954;51.914;8.420;2022-11-20T08:16:01;99981.66;;;4.68
15709;BMP180;7954;51.914;8.420;2022-11-20T08:18:30;99981.28;;;4.71
15709;BMP180;7954;51.914;8.420;2022-11-20T08:21:02;99979.09;;;4.72
15709;BMP180;7954;51.914;8.420;2022-11-20T08:23:31;99976.59;;;4.72
15709;BMP180;7954;51.914;8.420;2022-11-20T08:25:59;99975.28;;;4.74
15709;BMP180;7954;51.914;8.420;2022-11-20T08:28:26;99968.34;;;4.77
15709;BMP180;7954;51.914;8.420;2022-11-20T08:30:57;99970.72;;;4.81
15709;BMP180;7954;51.914;8.420;2022-11-20T08:33:28;99975.47;;;4.80
15709;BMP180;7954;51.914;8.420;2022-11-20T08:35:59;99970.72;;;4.81
15709;BMP180;7954;51.914;8.420;2022-11-20T08:38:28;99983.09;;;4.85
15709;BMP180;7954;51.914;8.420;2022-11-20T08:40:57;99973.63;;;4.88
15709;BMP180;7954;51.914;8.420;2022-11-20T08:43:47;99969.72;;;4.94
15709;BMP180;7954;51.914;8.420;2022-11-20T08:46:16;99979.91;;;5.00
15709;BMP180;7954;51.914;8.420;2022-11-20T08:48:46;99978.78;;;5.07
15709;BMP180;7954;51.914;8.420;2022-11-20T08:51:14;99969.28;;;5.10
15709;BMP180;7954;51.914;8.420;2022-11-20T08:53:42;99978.91;;;5.12
15709;BMP180;7954;51.914;8.420;2022-11-20T08:56:11;99974.75;;;5.17
15709;BMP180;7954;51.914;8.420;2022-11-20T08:58:39;99983.84;;;5.26
15709;BMP180;7954;51.914;8.420;2022-11-20T09:01:28;99977.31;;;5.36
15709;BMP180;7954;51.914;8.420;2022-11-20T09:03:58;99971.00;;;5.38
15709;BMP180;7954;51.914;8.420;2022-11-20T09:06:26;99971.16;;;5.43
15709;BMP180;7954;51.914;8.420;2022-11-20T09:08:55;99968.25;;;5.46
15709;BMP180;7954;51.914;8.420;2022-11-20T09:11:29;99955.63;;;5.50
15709;BMP180;7954;51.914;8.420;2022-11-20T09:13:56;99953.78;;;5.49
15709;BMP180;7954;51.914;8.420;2022-11-20T09:16:24;99957.22;;;5.49
15709;BMP180;7954;51.914;8.420;2022-11-20T09:18:53;99946.94;;;5.57
15709;BMP180;7954;51.914;8.420;2022-11-20T09:21:43;99952.38;;;5.64
15709;BMP180;7954;51.914;8.420;2022-11-20T09:24:11;99949.22;;;5.74
15709;BMP180;7954;51.914;8.420;2022-11-20T09:26:38;99945.84;;;5.83
15709;BMP180;7954;51.914;8.420;2022-11-20T09:29:08;99948.13;;;5.91
15709;BMP180;7954;51.914;8.420;2022-11-20T09:31:35;99942.31;;;6.06
15709;BMP180;7954;51.914;8.420;2022-11-20T09:34:04;99932.81;;;6.18
15709;BMP180;7954;51.914;8.420;2022-11-20T09:36:32;99933.22;;;6.25
15709;BMP180;7954;51.914;8.420;2022-11-20T09:39:02;99939.41;;;6.37
15709;BMP180;7954;51.914;8.420;2022-11-20T09:41:44;99948.91;;;6.52
15709;BMP180;7954;51.914;8.420;2022-11-20T09:44:30;99942.41;;;6.68
15709;BMP180;7954;51.914;8.420;2022-11-20T09:47:08;99936.56;;;6.82
15709;BMP180;7954;51.914;8.420;2022-11-20T09:49:50;99941.19;;;6.94
15709;BMP180;7954;51.914;8.420;2022-11-20T09:52:26;99951.81;;;7.02
15709;BMP180;7954;51.914;8.420;2022-11-20T09:54:58;99936.50;;;7.10
15709;BMP180;7954;51.914;8.420;2022-11-20T09:57:33;99921.13;;;7.18
15709;BMP180;7954;51.914;8.420;2022-11-20T10:00:04;99927.03;;;7.28
15709;BMP180;7954;51.914;8.420;2022-11-20T10:02:39;99922.38;;;7.35
15709;BMP180;7954;51.914;8.420;2022-11-20T10:05:12;99913.88;;;7.44
15709;BMP180;7954;51.914;8.420;2022-11-20T10:07:47;99905.75;;;7.51
15709;BMP180;7954;51.914;8.420;2022-11-20T10:10:25;99903.88;;;7.59
15709;BMP180;7954;51.914;8.420;2022-11-20T10:13:09;99909.91;;;7.65
15709;BMP180;7954;51.914;8.420;2022-11-20T10:15:47;99898.63;;;7.72
15709;BMP180;7954;51.914;8.420;2022-11-20T10:18:30;99898.97;;;7.65
15709;BMP180;7954;51.914;8.420;2022-11-20T10:21:06;99905.75;;;7.75
15709;BMP180;7954;51.914;8.420;2022-11-20T10:23:51;99910.56;;;7.88
15709;BMP180;7954;51.914;8.420;2022-11-20T10:26:31;99907.03;;;7.97
15709;BMP180;7954;51.914;8.420;2022-11-20T10:29:09;99894.84;;;8.04
15709;BMP180;7954;51.914;8.420;2022-11-20T10:31:40;99899.34;;;8.01
15709;BMP180;7954;51.914;8.420;2022-11-20T10:34:17;99890.53;;;8.09
15709;BMP180;7954;51.914;8.420;2022-11-20T10:36:52;99879.78;;;8.19
15709;BMP180;7954;51.914;8.420;2022-11-20T10:39:28;99876.03;;;8.27
15709;BMP180;7954;51.914;8.420;2022-11-20T10:42:00;99875.66;;;8.34
15709;BMP180;7954;51.914;8.420;2022-11-20T10:44:29;99866.09;;;8.37
15709;BMP180;7954;51.914;8.420;2022-11-20T10:47:22;99864.28;;;8.36
15709;BMP180;7954;51.914;8.420;2022-11-20T10:49:53;99865.19;;;8.37
15709;BMP180;7954;51.914;8.420;2022-11-20T10:52:30;99850.16;;;8.42
15709;BMP180;7954;51.914;8.420;2022-11-20T10:55:06;99859.22;;;8.51
15709;BMP180;7954;51.914;8.420;2022-11-20T10:57:51;99852.16;;;8.54
15709;BMP180;7954;51.914;8.420;2022-11-20T11:00:21;99853.16;;;8.60
15709;BMP180;7954;51.914;8.420;2022-11-20T11:02:50;99860.47;;;8.59
15709;BMP180;7954;51.914;8.420;2022-11-20T11:05:34;99836.78;;;8.68
15709;BMP180;7954;51.914;8.420;2022-11-20T11:08:07;99840.53;;;8.75
15709;BMP180;7954;51.914;8.420;2022-11-20T11:10:44;99830.16;;;8.68
15709;BMP180;7954;51.914;8.420;2022-11-20T11:13:22;99818.31;;;8.73
15709;BMP180;7954;51.914;8.420;2022-11-20T11:15:51;99819.03;;;8.77
15709;BMP180;7954;51.914;8.420;2022-11-20T11:18:24;99826.78;;;8.73
15709;BMP180;7954;51.914;8.420;2022-11-20T11:20:54;99805.31;;;8.75
15709;BMP180;7954;51.914;8.420;2022-11-20T11:23:30;99821.03;;;8.89
15709;BMP180;7954;51.914;8.420;2022-11-20T11:26:03;99821.34;;;8.96
15709;BMP180;7954;51.914;8.420;2022-11-20T11:28:34;99816.97;;;8.95
15709;BMP180;7954;51.914;8.420;2022-11-20T11:31:02;99811.63;;;9.08
15709;BMP180;7954;51.914;8.420;2022-11-20T11:33:31;99808.09;;;9.23
15709;BMP180;7954;51.914;8.420;2022-11-20T11:36:03;99813.66;;;9.26
15709;BMP180;7954;51.914;8.420;2022-11-20T11:38:35;99806.56;;;9.29
15709;BMP180;7954;51.914;8.420;2022-11-20T11:41:04;99800.19;;;9.31
15709;BMP180;7954;51.914;8.420;2022-11-20T11:43:36;99795.53;;;9.49
15709;BMP180;7954;51.914;8.420;2022-11-20T11:46:29;99782.16;;;9.70
15709;BMP180;7954;51.914;8.420;2022-11-20T11:48:59;99782.28;;;9.86
15709;BMP180;7954;51.914;8.420;2022-11-20T11:51:33;99779.56;;;10.16
15709;BMP180;7954;51.914;8.420;2022-11-20T11:54:08;99771.84;;;10.31
15709;BMP180;7954;51.914;8.420;2022-11-20T11:56:38;99770.97;;;10.47
15709;BMP180;7954;51.914;8.420;2022-11-20T11:59:12;99772.19;;;10.60
15709;BMP180;7954;51.914;8.420;2022-11-20T12:01:47;99773.75;;;10.59
15709;BMP180;7954;51.914;8.420;2022-11-20T12:04:24;99772.69;;;10.74
15709;BMP180;7954;51.914;8.420;2022-11-20T12:06:58;99766.28;;;10.81
15709;BMP180;7954;51.914;8.420;2022-11-20T12:09:52;99763.53;;;10.80
15709;BMP180;7954;51.914;8.420;2022-11-20T12:12:24;99768.09;;;10.77
15709;BMP180;7954;51.914;8.420;2022-11-20T12:14:57;99760.28;;;10.75
15709;BMP180;7954;51.914;8.420;2022-11-20T12:17:25;99763.97;;;10.77
15709;BMP180;7954;51.914;8.420;2022-11-20T12:19:54;99746.34;;;10.88
15709;BMP180;7954;51.914;8.420;2022-11-20T12:22:33;99746.34;;;11.04
15709;BMP180;7954;51.914;8.420;2022-11-20T12:25:07;99748.19;;;11.27
15709;BMP180;7954;51.914;8.420;2022-11-20T12:28:01;99740.44;;;11.53
15709;BMP180;7954;51.914;8.420;2022-11-20T12:30:36;99745.50;;;11.53
15709;BMP180;7954;51.914;8.420;2022-11-20T12:36:09;99734.91;;;11.55
15709;BMP180;7954;51.914;8.420;2022-11-20T12:39:00;99734.63;;;11.87
15709;BMP180;7954;51.914;8.420;2022-11-20T12:41:44;99723.84;;;11.82
15709;BMP180;7954;51.914;8.420;2022-11-20T12:44:50;99724.09;;;11.62
15709;BMP180;7954;51.914;8.420;2022-11-20T12:47:59;99728.72;;;11.59
15709;BMP180;7954;51.914;8.420;2022-11-20T12:50:40;99728.50;;;11.57
15709;BMP180;7954;51.914;8.420;2022-11-20T12:53:36;99723.63;;;11.48
15709;BMP180;7954;51.914;8.420;2022-11-20T12:56:17;99719.72;;;11.45
15709;BMP180;7954;51.914;8.420;2022-11-20T12:58:59;99716.03;;;11.75
15709;BMP180;7954;51.914;8.420;2022-11-20T13:01:32;99707.88;;;12.11
15709;BMP180;7954;51.914;8.420;2022-11-20T13:04:19;99697.91;;;12.39
15709;BMP180;7954;51.914;8.420;2022-11-20T13:06:53;99698.06;;;12.46
15709;BMP180;7954;51.914;8.420;2022-11-20T13:09:22;99701.13;;;12.38
15709;BMP180;7954;51.914;8.420;2022-11-20T13:12:01;99690.75;;;12.87
15709;BMP180;7954;51.914;8.420;2022-11-20T13:14:34;99688.47;;;13.41
15709;BMP180;7954;51.914;8.420;2022-11-20T13:17:09;99676.50;;;13.87
15709;BMP180;7954;51.914;8.420;2022-11-20T13:19:48;99662.22;;;14.23
15709;BMP180;7954;51.914;8.420;2022-11-20T13:22:24;99665.94;;;14.55
15709;BMP180;7954;51.914;8.420;2022-11-20T13:24:53;99658.22;;;14.78
15709;BMP180;7954;51.914;8.420;2022-11-20T13:27:22;99646.28;;;15.02
15709;BMP180;7954;51.914;8.420;2022-11-20T13:30:10;99648.94;;;15.09
15709;BMP180;7954;51.914;8.420;2022-11-20T13:32:48;99651.00;;;14.81
15709;BMP180;7954;51.914;8.420;2022-11-20T13:35:27;99649.97;;;14.44
15709;BMP180;7954;51.914;8.420;2022-11-20T13:38:06;99661.47;;;14.12
15709;BMP180;7954;51.914;8.420;2022-11-20T13:40:36;99655.91;;;13.91
15709;BMP180;7954;51.914;8.420;2022-11-20T13:43:16;99645.09;;;13.68
15709;BMP180;7954;51.914;8.420;2022-11-20T13:45:55;99642.44;;;13.56
15709;BMP180;7954;51.914;8.420;2022-11-20T13:48:27;99637.88;;;13.71
15709;BMP180;7954;51.914;8.420;2022-11-20T13:51:12;99618.16;;;13.63
15709;BMP180;7954;51.914;8.420;2022-11-20T13:53:58;99619.94;;;13.47
15709;BMP180;7954;51.914;8.420;2022-11-20T13:56:37;99611.56;;;13.53
15709;BMP180;7954;51.914;8.420;2022-11-20T13:59:12;99612.03;;;13.56
15709;BMP180;7954;51.914;8.420;2022-11-20T14:01:42;99609.03;;;13.53
15709;BMP180;7954;51.914;8.420;2022-11-20T14:04:16;99607.06;;;13.63
15709;BMP180;7954;51.914;8.420;2022-11-20T14:06:48;99600.13;;;13.67
15709;BMP180;7954;51.914;8.420;2022-11-20T14:09:26;99609.00;;;13.58
15709;BMP180;7954;51.914;8.420;2022-11-20T14:11:54;99593.69;;;13.46
15709;BMP180;7954;51.914;8.420;2022-11-20T14:14:24;99596.34;;;13.35
15709;BMP180;7954;51.914;8.420;2022-11-20T14:16:53;99593.88;;;13.30
15709;BMP180;7954;51.914;8.420;2022-11-20T14:19:27;99580.34;;;13.18
15709;BMP180;7954;51.914;8.420;2022-11-20T14:22:10;99574.97;;;13.04
15709;BMP180;7954;51.914;8.420;2022-11-20T14:24:42;99577.19;;;12.90
15709;BMP180;7954;51.914;8.420;2022-11-20T14:27:13;99577.44;;;12.81
15709;BMP180;7954;51.914;8.420;2022-11-20T14:29:43;99576.13;;;12.72
15709;BMP180;7954;51.914;8.420;2022-11-20T14:32:14;99575.94;;;12.65
15709;BMP180;7954;51.914;8.420;2022-11-20T14:34:44;99569.78;;;12.58
15709;BMP180;7954;51.914;8.420;2022-11-20T14:37:21;99583.69;;;12.49
15709;BMP180;7954;51.914;8.420;2022-11-20T14:39:51;99584.94;;;12.34
15709;BMP180;7954;51.914;8.420;2022-11-20T14:42:22;99580.84;;;12.24
15709;BMP180;7954;51.914;8.420;2022-11-20T14:44:52;99584.81;;;12.17
15709;BMP180;7954;51.914;8.420;2022-11-20T14:47:26;99583.44;;;12.13
15709;BMP180;7954;51.914;8.420;2022-11-20T14:49:57;99577.53;;;12.07
15709;BMP180;7954;51.914;8.420;2022-11-20T14:52:27;99574.31;;;12.03
15709;BMP180;7954;51.914;8.420;2022-11-20T14:54:58;99570.88;;;11.97
15709;BMP180;7954;51.914;8.420;2022-11-20T14:57:28;99566.09;;;11.93
15709;BMP180;7954;51.914;8.420;2022-11-20T15:00:05;99565.19;;;11.87